Thunder radar more information blitzortung!


Radar de pluja more information rain snow radar


Visita la nostra xarxa de llocs de meteo:

Template documentation
and downloads

And another site



No particular awareness of the weather is required.    There are no Weather-warnings

Pagina Historial Weather Underground text

Diari Resum Juny 23, 2017 Unitats:  Tant    Imperial   Mètric
« Previous Dia
SegĂźent Dia »
Diari Setmana Mensual Anual Personalitzada
  Maxima: Minima: Media:
Temperatura: 95 °F /  35.0 °C 70.2 °F /  21.2 °C 83.5 °F /  28.6 °C
Punt de rosada: 63.3 °F /  17.4 °C 55.2 °F /  12.9 °C 59.5 °F /  15.3 °C
Humitat: 71 % 31 % 46 %
Wind Speed: 15 mph /  24.1 km/h - 5.6 mph /  9 km/h
RĂ fegues de vent: 15 mph /  24.1 km/h - -
Vent:- - SW
Pression baro: 30.1 in /  1018.8 hPa 30 in /  1014.8 hPa -
Precipitacions: 0 in /  0.0 mm    
Historical Graphs
 
 
Dades de taula per Juny 23, 2017
Temps Temperatura Punt de rosada Pression baro Vent Wind Speed RĂ fegues de vent Humitat Rainfall Rate (Hourly)
00:01 75.6 °F /  24.2 °C 55.6 °F /  13.1 °C 30.1 in /  1017.8 hPa SW 4 mph /  6.4 km/h 4 mph /  6.4 km/h 50 % 0 in /  0.0 mm
00:05 72.3 °F /  22.4 °C 58.6 °F /  14.8 °C 30.1 in /  1017.8 hPa West 2 mph /  3.2 km/h 4 mph /  6.4 km/h 62 % 0 in /  0.0 mm
00:06 75.4 °F /  24.1 °C 55.9 °F /  13.3 °C 30.1 in /  1017.8 hPa SSW 3.5 mph /  5.6 km/h 3.5 mph /  5.6 km/h 51 % 0 in /  0.0 mm
00:15 72.1 °F /  22.3 °C 58.5 °F /  14.7 °C 30.1 in /  1017.8 hPa WSW 2 mph /  3.2 km/h 3 mph /  4.8 km/h 62 % 0 in /  0.0 mm
00:25 72 °F /  22.2 °C 58.3 °F /  14.6 °C 30.1 in /  1017.8 hPa West 2 mph /  3.2 km/h 3 mph /  4.8 km/h 62 % 0 in /  0.0 mm
00:35 71.8 °F /  22.1 °C 58.1 °F /  14.5 °C 30.1 in /  1017.8 hPa West 1 mph /  1.6 km/h 2 mph /  3.2 km/h 62 % 0 in /  0.0 mm
00:45 71.6 °F /  22.0 °C 58.3 °F /  14.6 °C 30.1 in /  1017.8 hPa Calm   1 mph /  1.6 km/h 63 % 0 in /  0.0 mm
00:55 71.1 °F /  21.7 °C 57.7 °F /  14.3 °C 30.1 in /  1017.8 hPa Calm     63 % 0 in /  0.0 mm
01:05 71.2 °F /  21.8 °C 57.9 °F /  14.4 °C 30.1 in /  1017.8 hPa WNW 1 mph /  1.6 km/h 2 mph /  3.2 km/h 63 % 0 in /  0.0 mm
01:15 71.1 °F /  21.7 °C 57.4 °F /  14.1 °C 30.1 in /  1017.8 hPa WNW 1 mph /  1.6 km/h 2 mph /  3.2 km/h 62 % 0 in /  0.0 mm
01:25 71.2 °F /  21.8 °C 57.6 °F /  14.2 °C 30.1 in /  1017.8 hPa West 2 mph /  3.2 km/h 2 mph /  3.2 km/h 62 % 0 in /  0.0 mm
01:35 71.6 °F /  22.0 °C 57.9 °F /  14.4 °C 30.1 in /  1017.8 hPa West 1 mph /  1.6 km/h 3 mph /  4.8 km/h 62 % 0 in /  0.0 mm
01:45 71.6 °F /  22.0 °C 58.3 °F /  14.6 °C 30.1 in /  1017.8 hPa West 1 mph /  1.6 km/h 2 mph /  3.2 km/h 63 % 0 in /  0.0 mm
01:55 71.4 °F /  21.9 °C 58.6 °F /  14.8 °C 30 in /  1016.8 hPa WNW 1 mph /  1.6 km/h 2 mph /  3.2 km/h 64 % 0 in /  0.0 mm
02:05 71.6 °F /  22.0 °C 57 °F /  13.9 °C 30.1 in /  1017.8 hPa NNW 1 mph /  1.6 km/h 3 mph /  4.8 km/h 60 % 0 in /  0.0 mm
02:15 72 °F /  22.2 °C 56.8 °F /  13.8 °C 30.1 in /  1017.8 hPa Calm   1 mph /  1.6 km/h 59 % 0 in /  0.0 mm
02:25 72.5 °F /  22.5 °C 57.4 °F /  14.1 °C 30.1 in /  1017.8 hPa Calm   2 mph /  3.2 km/h 59 % 0 in /  0.0 mm
02:35 73.9 °F /  23.3 °C 58.3 °F /  14.6 °C 30 in /  1016.8 hPa NNW 1 mph /  1.6 km/h 2 mph /  3.2 km/h 58 % 0 in /  0.0 mm
02:45 74.7 °F /  23.7 °C 58.8 °F /  14.9 °C 30 in /  1016.8 hPa Calm   2 mph /  3.2 km/h 58 % 0 in /  0.0 mm
02:55 74.5 °F /  23.6 °C 58.6 °F /  14.8 °C 30.1 in /  1017.8 hPa WNW 1 mph /  1.6 km/h 2 mph /  3.2 km/h 58 % 0 in /  0.0 mm
03:05 74.8 °F /  23.8 °C 59.2 °F /  15.1 °C 30.1 in /  1017.8 hPa West 1 mph /  1.6 km/h 3 mph /  4.8 km/h 58 % 0 in /  0.0 mm
03:15 75.2 °F /  24.0 °C 59.9 °F /  15.5 °C 30.1 in /  1017.8 hPa WSW 2 mph /  3.2 km/h 2 mph /  3.2 km/h 59 % 0 in /  0.0 mm
03:25 75.4 °F /  24.1 °C 60.1 °F /  15.6 °C 30.1 in /  1017.8 hPa West 2 mph /  3.2 km/h 4 mph /  6.4 km/h 59 % 0 in /  0.0 mm
03:35 76.1 °F /  24.5 °C 61.2 °F /  16.2 °C 30.1 in /  1017.8 hPa WSW 1 mph /  1.6 km/h 3 mph /  4.8 km/h 60 % 0 in /  0.0 mm
03:45 76.5 °F /  24.7 °C 61.5 °F /  16.4 °C 30.1 in /  1017.8 hPa SW 2 mph /  3.2 km/h 3 mph /  4.8 km/h 60 % 0 in /  0.0 mm
03:55 77 °F /  25.0 °C 61.5 °F /  16.4 °C 30.1 in /  1018.8 hPa WSW 2 mph /  3.2 km/h 3 mph /  4.8 km/h 59 % 0 in /  0.0 mm
04:05 77.7 °F /  25.4 °C 61.9 °F /  16.6 °C 30.1 in /  1017.8 hPa WSW 3 mph /  4.8 km/h 3 mph /  4.8 km/h 58 % 0 in /  0.0 mm
04:15 78.1 °F /  25.6 °C 61.5 °F /  16.4 °C 30.1 in /  1017.8 hPa WSW 3 mph /  4.8 km/h 4 mph /  6.4 km/h 57 % 0 in /  0.0 mm
04:25 78.8 °F /  26.0 °C 61.3 °F /  16.3 °C 30.1 in /  1018.8 hPa WSW 3 mph /  4.8 km/h 6 mph /  9.7 km/h 55 % 0 in /  0.0 mm
04:35 79.9 °F /  26.6 °C 62.2 °F /  16.8 °C 30.1 in /  1018.8 hPa WSW 2 mph /  3.2 km/h 4 mph /  6.4 km/h 55 % 0 in /  0.0 mm
04:45 80.6 °F /  27.0 °C 61.9 °F /  16.6 °C 30.1 in /  1018.8 hPa WSW 3 mph /  4.8 km/h 3 mph /  4.8 km/h 53 % 0 in /  0.0 mm
04:55 81.3 °F /  27.4 °C 62.1 °F /  16.7 °C 30.1 in /  1018.8 hPa WSW 2 mph /  3.2 km/h 4 mph /  6.4 km/h 52 % 0 in /  0.0 mm
05:05 82.2 °F /  27.9 °C 62.2 °F /  16.8 °C 30.1 in /  1018.8 hPa WSW 2 mph /  3.2 km/h 4 mph /  6.4 km/h 51 % 0 in /  0.0 mm
05:15 82.6 °F /  28.1 °C 62.1 °F /  16.7 °C 30.1 in /  1018.8 hPa WSW 2 mph /  3.2 km/h 4 mph /  6.4 km/h 50 % 0 in /  0.0 mm
05:25 83.7 °F /  28.7 °C 62.4 °F /  16.9 °C 30.1 in /  1018.8 hPa WSW 2 mph /  3.2 km/h 4 mph /  6.4 km/h 49 % 0 in /  0.0 mm
10:36 85.6 °F /  29.8 °C 61.9 °F /  16.6 °C 30.1 in /  1018.8 hPa SW 4.9 mph /  7.9 km/h 4.9 mph /  7.9 km/h 45 % 0 in /  0.0 mm
10:41 86.2 °F /  30.1 °C 61.7 °F /  16.5 °C 30.1 in /  1018.8 hPa SSW 3.5 mph /  5.6 km/h 3.5 mph /  5.6 km/h 44 % 0 in /  0.0 mm
10:46 86.5 °F /  30.3 °C 61.3 °F /  16.3 °C 30.1 in /  1018.8 hPa South 5.8 mph /  9.3 km/h 5.8 mph /  9.3 km/h 43 % 0 in /  0.0 mm
10:51 86.7 °F /  30.4 °C 61 °F /  16.1 °C 30.1 in /  1018.8 hPa West 4.6 mph /  7.4 km/h 4.6 mph /  7.4 km/h 42 % 0 in /  0.0 mm
10:56 87.4 °F /  30.8 °C 61.5 °F /  16.4 °C 30.1 in /  1018.8 hPa SW 4.6 mph /  7.4 km/h 4.6 mph /  7.4 km/h 42 % 0 in /  0.0 mm
11:01 87.8 °F /  31.0 °C 61.2 °F /  16.2 °C 30.1 in /  1018.8 hPa SW 4.6 mph /  7.4 km/h 4.6 mph /  7.4 km/h 41 % 0 in /  0.0 mm
11:06 88.7 °F /  31.5 °C 62.1 °F /  16.7 °C 30.1 in /  1018.8 hPa South 4.6 mph /  7.4 km/h 4.6 mph /  7.4 km/h 41 % 0 in /  0.0 mm
11:11 88.7 °F /  31.5 °C 61.3 °F /  16.3 °C 30.1 in /  1018.8 hPa SE 5.8 mph /  9.3 km/h 5.8 mph /  9.3 km/h 40 % 0 in /  0.0 mm
11:16 88.9 °F /  31.6 °C 62.1 °F /  16.7 °C 30.1 in /  1017.8 hPa WSW 5.8 mph /  9.3 km/h 5.8 mph /  9.3 km/h 41 % 0 in /  0.0 mm
11:21 89.1 °F /  31.7 °C 61.5 °F /  16.4 °C 30.1 in /  1017.8 hPa SSW 6.9 mph /  11.1 km/h 6.9 mph /  11.1 km/h 40 % 0 in /  0.0 mm
11:26 90 °F /  32.2 °C 62.4 °F /  16.9 °C 30.1 in /  1017.8 hPa WSW 3.6 mph /  5.8 km/h 3.6 mph /  5.8 km/h 40 % 0 in /  0.0 mm
11:31 89.6 °F /  32.0 °C 61.3 °F /  16.3 °C 30.1 in /  1018.8 hPa SW 8.1 mph /  13.0 km/h 8.1 mph /  13.0 km/h 39 % 0 in /  0.0 mm
11:36 90 °F /  32.2 °C 61 °F /  16.1 °C 30.1 in /  1018.8 hPa WSW 3.5 mph /  5.6 km/h 3.5 mph /  5.6 km/h 38 % 0 in /  0.0 mm
11:41 90.1 °F /  32.3 °C 60.4 °F /  15.8 °C 30.1 in /  1018.8 hPa SW 6.2 mph /  10.0 km/h 6.2 mph /  10.0 km/h 37 % 0 in /  0.0 mm
11:46 89.8 °F /  32.1 °C 59.4 °F /  15.2 °C 30.1 in /  1017.8 hPa West 8.1 mph /  13.0 km/h 8.1 mph /  13.0 km/h 36 % 0 in /  0.0 mm
11:51 89.8 °F /  32.1 °C 60.1 °F /  15.6 °C 30.1 in /  1017.8 hPa SW 7.6 mph /  12.2 km/h 7.6 mph /  12.2 km/h 37 % 0 in /  0.0 mm
11:56 90.1 °F /  32.3 °C 60.4 °F /  15.8 °C 30.1 in /  1017.8 hPa South 8.1 mph /  13.0 km/h 8.1 mph /  13.0 km/h 37 % 0 in /  0.0 mm
12:01 91.4 °F /  33.0 °C 60.6 °F /  15.9 °C 30.1 in /  1017.8 hPa WSW 4.6 mph /  7.4 km/h 4.6 mph /  7.4 km/h 36 % 0 in /  0.0 mm
12:06 91.9 °F /  33.3 °C 61.2 °F /  16.2 °C 30.1 in /  1017.8 hPa East 5.8 mph /  9.3 km/h 5.8 mph /  9.3 km/h 36 % 0 in /  0.0 mm
12:11 92.1 °F /  33.4 °C 61.3 °F /  16.3 °C 30.1 in /  1017.8 hPa SW 5.8 mph /  9.3 km/h 5.8 mph /  9.3 km/h 36 % 0 in /  0.0 mm
12:16 92.7 °F /  33.7 °C 61.9 °F /  16.6 °C 30 in /  1016.8 hPa WSW 4.6 mph /  7.4 km/h 4.6 mph /  7.4 km/h 36 % 0 in /  0.0 mm
12:21 92.1 °F /  33.4 °C 60.4 °F /  15.8 °C 30 in /  1016.8 hPa SW 5.8 mph /  9.3 km/h 5.8 mph /  9.3 km/h 35 % 0 in /  0.0 mm
12:26 91.9 °F /  33.3 °C 59.5 °F /  15.3 °C 30 in /  1016.8 hPa SW 6.9 mph /  11.1 km/h 6.9 mph /  11.1 km/h 34 % 0 in /  0.0 mm
12:31 92.3 °F /  33.5 °C 60.6 °F /  15.9 °C 30.1 in /  1017.8 hPa WSW 6.9 mph /  11.1 km/h 6.9 mph /  11.1 km/h 35 % 0 in /  0.0 mm
12:36 93.7 °F /  34.3 °C 62.1 °F /  16.7 °C 30.1 in /  1017.8 hPa SW 3.5 mph /  5.6 km/h 3.5 mph /  5.6 km/h 35 % 0 in /  0.0 mm
12:41 93.7 °F /  34.3 °C 61.2 °F /  16.2 °C 30.1 in /  1017.8 hPa SW 6.9 mph /  11.1 km/h 6.9 mph /  11.1 km/h 34 % 0 in /  0.0 mm
12:46 93 °F /  33.9 °C 60.4 °F /  15.8 °C 30.1 in /  1017.8 hPa SSW 10.4 mph /  16.7 km/h 10.4 mph /  16.7 km/h 34 % 0 in /  0.0 mm
12:51 92.7 °F /  33.7 °C 60.3 °F /  15.7 °C 30.1 in /  1017.8 hPa WSW 11.5 mph /  18.5 km/h 11.5 mph /  18.5 km/h 34 % 0 in /  0.0 mm
12:56 93 °F /  33.9 °C 60.4 °F /  15.8 °C 30.1 in /  1017.8 hPa South 9.2 mph /  14.8 km/h 9.2 mph /  14.8 km/h 34 % 0 in /  0.0 mm
13:01 93.7 °F /  34.3 °C 61.2 °F /  16.2 °C 30.1 in /  1017.8 hPa WSW 5.8 mph /  9.3 km/h 5.8 mph /  9.3 km/h 34 % 0 in /  0.0 mm
13:06 93.2 °F /  34.0 °C 60.6 °F /  15.9 °C 30.1 in /  1017.8 hPa SSE 12.7 mph /  20.4 km/h 12.7 mph /  20.4 km/h 34 % 0 in /  0.0 mm
13:11 94.1 °F /  34.5 °C 61.3 °F /  16.3 °C 30.1 in /  1017.8 hPa SW 5.8 mph /  9.3 km/h 5.8 mph /  9.3 km/h 34 % 0 in /  0.0 mm
13:16 94.1 °F /  34.5 °C 60.6 °F /  15.9 °C 30.1 in /  1017.8 hPa WSW 5.8 mph /  9.3 km/h 5.8 mph /  9.3 km/h 33 % 0 in /  0.0 mm
13:21 93.7 °F /  34.3 °C 59.4 °F /  15.2 °C 30.1 in /  1017.8 hPa SSW 9.2 mph /  14.8 km/h 9.2 mph /  14.8 km/h 32 % 0 in /  0.0 mm
13:26 93.7 °F /  34.3 °C 58.5 °F /  14.7 °C 30.1 in /  1017.8 hPa SW 5.8 mph /  9.3 km/h 5.8 mph /  9.3 km/h 31 % 0 in /  0.0 mm
13:31 94.3 °F /  34.6 °C 59.9 °F /  15.5 °C 30.1 in /  1017.8 hPa SW 6.9 mph /  11.1 km/h 6.9 mph /  11.1 km/h 32 % 0 in /  0.0 mm
13:36 94.5 °F /  34.7 °C 59.2 °F /  15.1 °C 30.1 in /  1017.8 hPa SW 8.1 mph /  13.0 km/h 8.1 mph /  13.0 km/h 31 % 0 in /  0.0 mm
13:41 94.5 °F /  34.7 °C 59.2 °F /  15.1 °C 30.1 in /  1017.8 hPa SW 5.8 mph /  9.3 km/h 5.8 mph /  9.3 km/h 31 % 0 in /  0.0 mm
13:46 94.5 °F /  34.7 °C 59.2 °F /  15.1 °C 30.1 in /  1017.8 hPa SSW 5.8 mph /  9.3 km/h 5.8 mph /  9.3 km/h 31 % 0 in /  0.0 mm
13:51 94.5 °F /  34.7 °C 59.2 °F /  15.1 °C 30.1 in /  1017.8 hPa WSW 6.2 mph /  10.0 km/h 6.2 mph /  10.0 km/h 31 % 0 in /  0.0 mm
13:56 93.9 °F /  34.4 °C 58.6 °F /  14.8 °C 30.1 in /  1017.8 hPa SSW 9.2 mph /  14.8 km/h 9.2 mph /  14.8 km/h 31 % 0 in /  0.0 mm
14:01 94.1 °F /  34.5 °C 58.8 °F /  14.9 °C 30.1 in /  1017.8 hPa WSW 9.7 mph /  15.6 km/h 9.7 mph /  15.6 km/h 31 % 0 in /  0.0 mm
14:06 94.6 °F /  34.8 °C 59.4 °F /  15.2 °C 30.1 in /  1017.8 hPa West 6.9 mph /  11.1 km/h 6.9 mph /  11.1 km/h 31 % 0 in /  0.0 mm
14:11 94.5 °F /  34.7 °C 59.2 °F /  15.1 °C 30.1 in /  1017.8 hPa SSW 7.8 mph /  12.6 km/h 7.8 mph /  12.6 km/h 31 % 0 in /  0.0 mm
14:16 94.8 °F /  34.9 °C 59.5 °F /  15.3 °C 30.1 in /  1017.8 hPa SW 5.8 mph /  9.3 km/h 5.8 mph /  9.3 km/h 31 % 0 in /  0.0 mm
14:21 94.1 °F /  34.5 °C 58.8 °F /  14.9 °C 30.1 in /  1017.8 hPa SSW 8.1 mph /  13.0 km/h 8.1 mph /  13.0 km/h 31 % 0 in /  0.0 mm
14:26 94.5 °F /  34.7 °C 60.1 °F /  15.6 °C 30.1 in /  1017.8 hPa West 6.9 mph /  11.1 km/h 6.9 mph /  11.1 km/h 32 % 0 in /  0.0 mm
14:31 94.5 °F /  34.7 °C 60.1 °F /  15.6 °C 30 in /  1016.8 hPa SSW 5.8 mph /  9.3 km/h 5.8 mph /  9.3 km/h 32 % 0 in /  0.0 mm
14:36 95 °F /  35.0 °C 59.5 °F /  15.3 °C 30 in /  1016.8 hPa West 8.7 mph /  14.0 km/h 8.7 mph /  14.0 km/h 31 % 0 in /  0.0 mm
14:39 94.1 °F /  34.5 °C 59.7 °F /  15.4 °C 30 in /  1016.8 hPa SW 6.9 mph /  11.1 km/h 6.9 mph /  11.1 km/h 32 % 0 in /  0.0 mm
14:44 94.6 °F /  34.8 °C 61.2 °F /  16.2 °C 30 in /  1016.8 hPa SW 6.9 mph /  11.1 km/h 6.9 mph /  11.1 km/h 33 % 0 in /  0.0 mm
14:49 94.5 °F /  34.7 °C 61 °F /  16.1 °C 30 in /  1016.8 hPa West 8.1 mph /  13.0 km/h 8.1 mph /  13.0 km/h 33 % 0 in /  0.0 mm
14:54 94.8 °F /  34.9 °C 61.2 °F /  16.2 °C 30 in /  1016.8 hPa West 9.2 mph /  14.8 km/h 9.2 mph /  14.8 km/h 33 % 0 in /  0.0 mm
14:59 94.3 °F /  34.6 °C 61.5 °F /  16.4 °C 30 in /  1015.8 hPa SW 11.5 mph /  18.5 km/h 11.5 mph /  18.5 km/h 34 % 0 in /  0.0 mm
15:04 93.6 °F /  34.2 °C 61.9 °F /  16.6 °C 30 in /  1015.8 hPa WSW 12.7 mph /  20.4 km/h 12.7 mph /  20.4 km/h 35 % 0 in /  0.0 mm
15:09 93.4 °F /  34.1 °C 61.5 °F /  16.4 °C 30 in /  1015.8 hPa SW 10 mph /  16.1 km/h 10 mph /  16.1 km/h 35 % 0 in /  0.0 mm
15:14 93.2 °F /  34.0 °C 62.2 °F /  16.8 °C 30 in /  1015.8 hPa SW 10.4 mph /  16.7 km/h 10.4 mph /  16.7 km/h 36 % 0 in /  0.0 mm
15:19 92.8 °F /  33.8 °C 62.1 °F /  16.7 °C 30 in /  1015.8 hPa WSW 10.4 mph /  16.7 km/h 10.4 mph /  16.7 km/h 36 % 0 in /  0.0 mm
15:24 92.3 °F /  33.5 °C 61.5 °F /  16.4 °C 30 in /  1015.8 hPa SSW 11.5 mph /  18.5 km/h 11.5 mph /  18.5 km/h 36 % 0 in /  0.0 mm
15:29 93 °F /  33.9 °C 62.1 °F /  16.7 °C 30 in /  1015.8 hPa South 7.6 mph /  12.2 km/h 7.6 mph /  12.2 km/h 36 % 0 in /  0.0 mm
15:34 92.8 °F /  33.8 °C 62.1 °F /  16.7 °C 30 in /  1015.8 hPa SSW 8.1 mph /  13.0 km/h 8.1 mph /  13.0 km/h 36 % 0 in /  0.0 mm
15:39 92.8 °F /  33.8 °C 62.1 °F /  16.7 °C 30 in /  1015.8 hPa West 11.5 mph /  18.5 km/h 11.5 mph /  18.5 km/h 36 % 0 in /  0.0 mm
15:44 92.3 °F /  33.5 °C 60.6 °F /  15.9 °C 30 in /  1015.8 hPa West 10.4 mph /  16.7 km/h 10.4 mph /  16.7 km/h 35 % 0 in /  0.0 mm
15:49 92.7 °F /  33.7 °C 61 °F /  16.1 °C 30 in /  1015.8 hPa West 9.2 mph /  14.8 km/h 9.2 mph /  14.8 km/h 35 % 0 in /  0.0 mm
15:54 92.3 °F /  33.5 °C 60.6 °F /  15.9 °C 30 in /  1015.8 hPa SW 12.7 mph /  20.4 km/h 12.7 mph /  20.4 km/h 35 % 0 in /  0.0 mm
15:59 92.8 °F /  33.8 °C 62.1 °F /  16.7 °C 30 in /  1014.8 hPa SW 7.8 mph /  12.6 km/h 7.8 mph /  12.6 km/h 36 % 0 in /  0.0 mm
16:04 92.3 °F /  33.5 °C 60.6 °F /  15.9 °C 30 in /  1014.8 hPa SW 13 mph /  20.9 km/h 13 mph /  20.9 km/h 35 % 0 in /  0.0 mm
16:09 91.4 °F /  33.0 °C 60.6 °F /  15.9 °C 30 in /  1014.8 hPa SSW 12.7 mph /  20.4 km/h 12.7 mph /  20.4 km/h 36 % 0 in /  0.0 mm
16:14 91.8 °F /  33.2 °C 61 °F /  16.1 °C 30 in /  1015.8 hPa SW 12.7 mph /  20.4 km/h 12.7 mph /  20.4 km/h 36 % 0 in /  0.0 mm
16:19 91.9 °F /  33.3 °C 61.2 °F /  16.2 °C 30 in /  1015.8 hPa SW 10 mph /  16.1 km/h 10 mph /  16.1 km/h 36 % 0 in /  0.0 mm
16:24 91 °F /  32.8 °C 61.2 °F /  16.2 °C 30 in /  1015.8 hPa WSW 10.7 mph /  17.2 km/h 10.7 mph /  17.2 km/h 37 % 0 in /  0.0 mm
16:29 91.9 °F /  33.3 °C 61.9 °F /  16.6 °C 30 in /  1015.8 hPa SW 10.9 mph /  17.5 km/h 10.9 mph /  17.5 km/h 37 % 0 in /  0.0 mm
16:34 91.6 °F /  33.1 °C 61.5 °F /  16.4 °C 30 in /  1015.8 hPa South 10.4 mph /  16.7 km/h 10.4 mph /  16.7 km/h 37 % 0 in /  0.0 mm
16:39 91 °F /  32.8 °C 61.9 °F /  16.6 °C 30 in /  1015.8 hPa West 8.1 mph /  13.0 km/h 8.1 mph /  13.0 km/h 38 % 0 in /  0.0 mm
16:44 90.9 °F /  32.7 °C 62.4 °F /  16.9 °C 30 in /  1015.8 hPa WSW 11.5 mph /  18.5 km/h 11.5 mph /  18.5 km/h 39 % 0 in /  0.0 mm
16:49 90.7 °F /  32.6 °C 62.2 °F /  16.8 °C 30 in /  1015.8 hPa WSW 8.1 mph /  13.0 km/h 8.1 mph /  13.0 km/h 39 % 0 in /  0.0 mm
16:54 90.7 °F /  32.6 °C 62.2 °F /  16.8 °C 30 in /  1015.8 hPa SSW 12.7 mph /  20.4 km/h 12.7 mph /  20.4 km/h 39 % 0 in /  0.0 mm
16:59 90.7 °F /  32.6 °C 63 °F /  17.2 °C 30 in /  1015.8 hPa SW 9.2 mph /  14.8 km/h 9.2 mph /  14.8 km/h 40 % 0 in /  0.0 mm
17:04 91 °F /  32.8 °C 63.3 °F /  17.4 °C 30 in /  1015.8 hPa WSW 8.7 mph /  14.0 km/h 8.7 mph /  14.0 km/h 40 % 0 in /  0.0 mm
17:09 90.1 °F /  32.3 °C 62.6 °F /  17.0 °C 30 in /  1015.8 hPa WSW 9.2 mph /  14.8 km/h 9.2 mph /  14.8 km/h 40 % 0 in /  0.0 mm
17:14 90.1 °F /  32.3 °C 61.9 °F /  16.6 °C 30 in /  1014.8 hPa SW 13.8 mph /  22.2 km/h 13.8 mph /  22.2 km/h 39 % 0 in /  0.0 mm
17:19 90.3 °F /  32.4 °C 62.1 °F /  16.7 °C 30 in /  1014.8 hPa SW 9.2 mph /  14.8 km/h 9.2 mph /  14.8 km/h 39 % 0 in /  0.0 mm
17:24 90.3 °F /  32.4 °C 62.1 °F /  16.7 °C 30 in /  1014.8 hPa SSW 10.4 mph /  16.7 km/h 10.4 mph /  16.7 km/h 39 % 0 in /  0.0 mm
17:29 90.1 °F /  32.3 °C 61.9 °F /  16.6 °C 30 in /  1015.8 hPa SSW 10.5 mph /  16.9 km/h 10.5 mph /  16.9 km/h 39 % 0 in /  0.0 mm
17:34 89.8 °F /  32.1 °C 61.5 °F /  16.4 °C 30 in /  1015.8 hPa SW 10.4 mph /  16.7 km/h 10.4 mph /  16.7 km/h 39 % 0 in /  0.0 mm
17:39 90 °F /  32.2 °C 61.7 °F /  16.5 °C 30 in /  1015.8 hPa West 8.1 mph /  13.0 km/h 8.1 mph /  13.0 km/h 39 % 0 in /  0.0 mm
17:44 89.4 °F /  31.9 °C 61.2 °F /  16.2 °C 30 in /  1015.8 hPa WSW 11.5 mph /  18.5 km/h 11.5 mph /  18.5 km/h 39 % 0 in /  0.0 mm
17:49 89.1 °F /  31.7 °C 60.1 °F /  15.6 °C 30 in /  1015.8 hPa WSW 8.1 mph /  13.0 km/h 8.1 mph /  13.0 km/h 38 % 0 in /  0.0 mm
17:54 88.3 °F /  31.3 °C 60.3 °F /  15.7 °C 30 in /  1015.8 hPa SW 15 mph /  24.1 km/h 15 mph /  24.1 km/h 39 % 0 in /  0.0 mm
17:59 88.5 °F /  31.4 °C 60.4 °F /  15.8 °C 30 in /  1015.8 hPa South 9.2 mph /  14.8 km/h 9.2 mph /  14.8 km/h 39 % 0 in /  0.0 mm
18:04 88.5 °F /  31.4 °C 60.4 °F /  15.8 °C 30 in /  1015.8 hPa SW 12.3 mph /  19.8 km/h 12.3 mph /  19.8 km/h 39 % 0 in /  0.0 mm
18:09 88.3 °F /  31.3 °C 60.3 °F /  15.7 °C 30 in /  1015.8 hPa WSW 12.3 mph /  19.8 km/h 12.3 mph /  19.8 km/h 39 % 0 in /  0.0 mm
18:14 87.6 °F /  30.9 °C 60.3 °F /  15.7 °C 30 in /  1015.8 hPa SW 8.1 mph /  13.0 km/h 8.1 mph /  13.0 km/h 40 % 0 in /  0.0 mm
18:19 87.8 °F /  31.0 °C 60.4 °F /  15.8 °C 30 in /  1015.8 hPa SW 10.4 mph /  16.7 km/h 10.4 mph /  16.7 km/h 40 % 0 in /  0.0 mm
18:24 87.6 °F /  30.9 °C 61 °F /  16.1 °C 30 in /  1015.8 hPa SSW 5.8 mph /  9.3 km/h 5.8 mph /  9.3 km/h 41 % 0 in /  0.0 mm
18:29 88.2 °F /  31.2 °C 60.8 °F /  16.0 °C 30 in /  1015.8 hPa SSW 9.8 mph /  15.8 km/h 9.8 mph /  15.8 km/h 40 % 0 in /  0.0 mm
18:34 88 °F /  31.1 °C 60.6 °F /  15.9 °C 30 in /  1015.8 hPa SW 11.5 mph /  18.5 km/h 11.5 mph /  18.5 km/h 40 % 0 in /  0.0 mm
18:36 87.8 °F /  31.0 °C 60.4 °F /  15.8 °C 30 in /  1015.8 hPa WSW 9.2 mph /  14.8 km/h 9.2 mph /  14.8 km/h 40 % 0 in /  0.0 mm
18:41 87.8 °F /  31.0 °C 60.4 °F /  15.8 °C 30 in /  1015.8 hPa SSW 12.1 mph /  19.5 km/h 12.1 mph /  19.5 km/h 40 % 0 in /  0.0 mm
18:46 87.3 °F /  30.7 °C 60.1 °F /  15.6 °C 30 in /  1015.8 hPa South 12.5 mph /  20.1 km/h 12.5 mph /  20.1 km/h 40 % 0 in /  0.0 mm
18:51 87.1 °F /  30.6 °C 59.7 °F /  15.4 °C 30 in /  1015.8 hPa SSW 9.2 mph /  14.8 km/h 9.2 mph /  14.8 km/h 40 % 0 in /  0.0 mm
18:56 87.3 °F /  30.7 °C 60.1 °F /  15.6 °C 30 in /  1015.8 hPa WSW 9.2 mph /  14.8 km/h 9.2 mph /  14.8 km/h 40 % 0 in /  0.0 mm
19:01 86.9 °F /  30.5 °C 59.7 °F /  15.4 °C 30 in /  1015.8 hPa SW 10.4 mph /  16.7 km/h 10.4 mph /  16.7 km/h 40 % 0 in /  0.0 mm
19:06 86.9 °F /  30.5 °C 60.4 °F /  15.8 °C 30 in /  1015.8 hPa WSW 6.2 mph /  10.0 km/h 6.2 mph /  10.0 km/h 41 % 0 in /  0.0 mm
19:11 86.7 °F /  30.4 °C 60.3 °F /  15.7 °C 30 in /  1015.8 hPa SW 5.8 mph /  9.3 km/h 5.8 mph /  9.3 km/h 41 % 0 in /  0.0 mm
19:16 86.5 °F /  30.3 °C 60.1 °F /  15.6 °C 30 in /  1015.8 hPa SW 7.8 mph /  12.6 km/h 7.8 mph /  12.6 km/h 41 % 0 in /  0.0 mm
19:21 86.2 °F /  30.1 °C 59 °F /  15.0 °C 30 in /  1015.8 hPa SW 10.4 mph /  16.7 km/h 10.4 mph /  16.7 km/h 40 % 0 in /  0.0 mm
19:25 74.8 °F /  23.8 °C 58.6 °F /  14.8 °C 30.1 in /  1017.8 hPa WSW 2 mph /  3.2 km/h 2 mph /  3.2 km/h 57 % 0 in /  0.0 mm
19:26 85.8 °F /  29.9 °C 59.4 °F /  15.2 °C 30 in /  1015.8 hPa West 10.4 mph /  16.7 km/h 10.4 mph /  16.7 km/h 41 % 0 in /  0.0 mm
19:31 85.5 °F /  29.7 °C 59.2 °F /  15.1 °C 30 in /  1015.8 hPa WSW 12.7 mph /  20.4 km/h 12.7 mph /  20.4 km/h 41 % 0 in /  0.0 mm
19:35 74.5 °F /  23.6 °C 58.6 °F /  14.8 °C 30.1 in /  1017.8 hPa SW 2 mph /  3.2 km/h 3 mph /  4.8 km/h 58 % 0 in /  0.0 mm
19:36 85.3 °F /  29.6 °C 58.8 °F /  14.9 °C 30 in /  1015.8 hPa SSW 8.1 mph /  13.0 km/h 8.1 mph /  13.0 km/h 41 % 0 in /  0.0 mm
19:41 84.9 °F /  29.4 °C 58.6 °F /  14.8 °C 30 in /  1015.8 hPa SW 10.4 mph /  16.7 km/h 10.4 mph /  16.7 km/h 41 % 0 in /  0.0 mm
19:45 74.1 °F /  23.4 °C 58.8 °F /  14.9 °C 30.1 in /  1017.8 hPa WSW 2 mph /  3.2 km/h 2 mph /  3.2 km/h 59 % 0 in /  0.0 mm
19:46 84.7 °F /  29.3 °C 58.5 °F /  14.7 °C 30 in /  1015.8 hPa SSW 8.1 mph /  13.0 km/h 8.1 mph /  13.0 km/h 41 % 0 in /  0.0 mm
19:51 84.6 °F /  29.2 °C 58.8 °F /  14.9 °C 30 in /  1015.8 hPa South 8.1 mph /  13.0 km/h 8.1 mph /  13.0 km/h 42 % 0 in /  0.0 mm
19:55 73.9 °F /  23.3 °C 59.2 °F /  15.1 °C 30.1 in /  1017.8 hPa SW 2 mph /  3.2 km/h 2 mph /  3.2 km/h 60 % 0 in /  0.0 mm
19:56 84.2 °F /  29.0 °C 58.6 °F /  14.8 °C 30 in /  1015.8 hPa SW 6.9 mph /  11.1 km/h 6.9 mph /  11.1 km/h 42 % 0 in /  0.0 mm
20:01 84.2 °F /  29.0 °C 59.4 °F /  15.2 °C 30 in /  1014.8 hPa SW 5.9 mph /  9.5 km/h 5.9 mph /  9.5 km/h 43 % 0 in /  0.0 mm
20:05 73.9 °F /  23.3 °C 59.2 °F /  15.1 °C 30.1 in /  1017.8 hPa WSW 2 mph /  3.2 km/h 3 mph /  4.8 km/h 60 % 0 in /  0.0 mm
20:06 83.8 °F /  28.8 °C 59.5 °F /  15.3 °C 30 in /  1014.8 hPa SW 3.5 mph /  5.6 km/h 3.5 mph /  5.6 km/h 44 % 0 in /  0.0 mm
20:11 83.8 °F /  28.8 °C 59 °F /  15.0 °C 30 in /  1014.8 hPa West 6.9 mph /  11.1 km/h 6.9 mph /  11.1 km/h 43 % 0 in /  0.0 mm
20:15 73.8 °F /  23.2 °C 59.5 °F /  15.3 °C 30.1 in /  1017.8 hPa West 1 mph /  1.6 km/h 2 mph /  3.2 km/h 61 % 0 in /  0.0 mm
20:16 83.5 °F /  28.6 °C 58.6 °F /  14.8 °C 30 in /  1014.8 hPa WSW 9.2 mph /  14.8 km/h 9.2 mph /  14.8 km/h 43 % 0 in /  0.0 mm
20:21 83.3 °F /  28.5 °C 58.5 °F /  14.7 °C 30 in /  1014.8 hPa SSW 5.8 mph /  9.3 km/h 5.8 mph /  9.3 km/h 43 % 0 in /  0.0 mm
20:25 73.6 °F /  23.1 °C 59.4 °F /  15.2 °C 30.1 in /  1017.8 hPa WSW 2 mph /  3.2 km/h 2 mph /  3.2 km/h 61 % 0 in /  0.0 mm
20:26 82.9 °F /  28.3 °C 57.6 °F /  14.2 °C 30 in /  1014.8 hPa SSW 5.8 mph /  9.3 km/h 5.8 mph /  9.3 km/h 42 % 0 in /  0.0 mm
20:31 82.8 °F /  28.2 °C 57.4 °F /  14.1 °C 30 in /  1014.8 hPa SW 3.5 mph /  5.6 km/h 3.5 mph /  5.6 km/h 42 % 0 in /  0.0 mm
20:35 73.4 °F /  23.0 °C 59.5 °F /  15.3 °C 30 in /  1016.8 hPa West 1 mph /  1.6 km/h 2 mph /  3.2 km/h 62 % 0 in /  0.0 mm
20:36 82.6 °F /  28.1 °C 57.2 °F /  14.0 °C 30 in /  1014.8 hPa South 4.6 mph /  7.4 km/h 4.6 mph /  7.4 km/h 42 % 0 in /  0.0 mm
20:41 82.4 °F /  28.0 °C 57 °F /  13.9 °C 30 in /  1014.8 hPa WNW 4.6 mph /  7.4 km/h 4.6 mph /  7.4 km/h 42 % 0 in /  0.0 mm
20:45 73.4 °F /  23.0 °C 59.5 °F /  15.3 °C 30 in /  1016.8 hPa West 1 mph /  1.6 km/h 2 mph /  3.2 km/h 62 % 0 in /  0.0 mm
20:46 82 °F /  27.8 °C 55.9 °F /  13.3 °C 30 in /  1015.8 hPa South 5.8 mph /  9.3 km/h 5.8 mph /  9.3 km/h 41 % 0 in /  0.0 mm
20:51 81.9 °F /  27.7 °C 55.9 °F /  13.3 °C 30 in /  1015.8 hPa SW 3.5 mph /  5.6 km/h 3.5 mph /  5.6 km/h 41 % 0 in /  0.0 mm
20:55 73.4 °F /  23.0 °C 59.5 °F /  15.3 °C 30.1 in /  1017.8 hPa West 1 mph /  1.6 km/h 2 mph /  3.2 km/h 62 % 0 in /  0.0 mm
20:56 81.7 °F /  27.6 °C 55.8 °F /  13.2 °C 30 in /  1015.8 hPa SW 3.5 mph /  5.6 km/h 3.5 mph /  5.6 km/h 41 % 0 in /  0.0 mm
21:01 81.5 °F /  27.5 °C 55.6 °F /  13.1 °C 30 in /  1015.8 hPa SW 4.6 mph /  7.4 km/h 4.6 mph /  7.4 km/h 41 % 0 in /  0.0 mm
21:05 73.4 °F /  23.0 °C 59.5 °F /  15.3 °C 30.1 in /  1017.8 hPa West 2 mph /  3.2 km/h 2 mph /  3.2 km/h 62 % 0 in /  0.0 mm
21:06 81.1 °F /  27.3 °C 55.2 °F /  12.9 °C 30 in /  1015.8 hPa WSW 6.9 mph /  11.1 km/h 6.9 mph /  11.1 km/h 41 % 0 in /  0.0 mm
21:11 80.8 °F /  27.1 °C 55.6 °F /  13.1 °C 30 in /  1015.8 hPa WSW 12.7 mph /  20.4 km/h 12.7 mph /  20.4 km/h 42 % 0 in /  0.0 mm
21:15 73.2 °F /  22.9 °C 59.4 °F /  15.2 °C 30.1 in /  1017.8 hPa West 2 mph /  3.2 km/h 2 mph /  3.2 km/h 62 % 0 in /  0.0 mm
21:16 80.6 °F /  27.0 °C 55.4 °F /  13.0 °C 30 in /  1015.8 hPa SW 5.8 mph /  9.3 km/h 5.8 mph /  9.3 km/h 42 % 0 in /  0.0 mm
21:21 80.4 °F /  26.9 °C 55.9 °F /  13.3 °C 30 in /  1015.8 hPa SW 5.8 mph /  9.3 km/h 5.8 mph /  9.3 km/h 43 % 0 in /  0.0 mm
21:25 73.2 °F /  22.9 °C 59.9 °F /  15.5 °C 30.1 in /  1017.8 hPa West 1 mph /  1.6 km/h 4 mph /  6.4 km/h 63 % 0 in /  0.0 mm
21:26 80.1 °F /  26.7 °C 56.1 °F /  13.4 °C 30 in /  1015.8 hPa SW 5.8 mph /  9.3 km/h 5.8 mph /  9.3 km/h 44 % 0 in /  0.0 mm
21:31 79.7 °F /  26.5 °C 55.9 °F /  13.3 °C 30 in /  1015.8 hPa SW 3.8 mph /  6.1 km/h 3.8 mph /  6.1 km/h 44 % 0 in /  0.0 mm
21:35 73 °F /  22.8 °C 59.7 °F /  15.4 °C 30.1 in /  1017.8 hPa West 1 mph /  1.6 km/h 3 mph /  4.8 km/h 63 % 0 in /  0.0 mm
21:36 79.5 °F /  26.4 °C 56.3 °F /  13.5 °C 30 in /  1015.8 hPa SW 5.8 mph /  9.3 km/h 5.8 mph /  9.3 km/h 45 % 0 in /  0.0 mm
21:41 79.3 °F /  26.3 °C 56.1 °F /  13.4 °C 30 in /  1015.8 hPa WSW 4.9 mph /  7.9 km/h 4.9 mph /  7.9 km/h 45 % 0 in /  0.0 mm
21:45 73 °F /  22.8 °C 60.1 °F /  15.6 °C 30.1 in /  1017.8 hPa West 2 mph /  3.2 km/h 3 mph /  4.8 km/h 64 % 0 in /  0.0 mm
21:46 79 °F /  26.1 °C 55.8 °F /  13.2 °C 30 in /  1015.8 hPa SW 4.6 mph /  7.4 km/h 4.6 mph /  7.4 km/h 45 % 0 in /  0.0 mm
21:51 78.8 °F /  26.0 °C 56.3 °F /  13.5 °C 30 in /  1015.8 hPa SW 4.6 mph /  7.4 km/h 4.6 mph /  7.4 km/h 46 % 0 in /  0.0 mm
21:55 73 °F /  22.8 °C 60.1 °F /  15.6 °C 30.1 in /  1017.8 hPa WSW 2 mph /  3.2 km/h 3 mph /  4.8 km/h 64 % 0 in /  0.0 mm
21:56 78.6 °F /  25.9 °C 56.1 °F /  13.4 °C 30 in /  1015.8 hPa East 5.8 mph /  9.3 km/h 5.8 mph /  9.3 km/h 46 % 0 in /  0.0 mm
22:01 78.4 °F /  25.8 °C 56.5 °F /  13.6 °C 30 in /  1015.8 hPa West 3.6 mph /  5.8 km/h 3.6 mph /  5.8 km/h 47 % 0 in /  0.0 mm
22:05 72.9 °F /  22.7 °C 60.4 °F /  15.8 °C 30.1 in /  1017.8 hPa WSW 1 mph /  1.6 km/h 2 mph /  3.2 km/h 65 % 0 in /  0.0 mm
22:06 78.3 °F /  25.7 °C 56.5 °F /  13.6 °C 30 in /  1015.8 hPa WSW 2.3 mph /  3.7 km/h 2.3 mph /  3.7 km/h 47 % 0 in /  0.0 mm
22:11 78.1 °F /  25.6 °C 56.8 °F /  13.8 °C 30 in /  1015.8 hPa SSW 2.3 mph /  3.7 km/h 2.3 mph /  3.7 km/h 48 % 0 in /  0.0 mm
22:15 72.7 °F /  22.6 °C 60.3 °F /  15.7 °C 30.1 in /  1017.8 hPa Calm   2 mph /  3.2 km/h 65 % 0 in /  0.0 mm
22:16 77.7 °F /  25.4 °C 56.5 °F /  13.6 °C 30 in /  1015.8 hPa WSW 3.5 mph /  5.6 km/h 3.5 mph /  5.6 km/h 48 % 0 in /  0.0 mm
22:21 77.5 °F /  25.3 °C 56.8 °F /  13.8 °C 30 in /  1015.8 hPa SW 4.6 mph /  7.4 km/h 4.6 mph /  7.4 km/h 49 % 0 in /  0.0 mm
22:25 72.3 °F /  22.4 °C 60.3 °F /  15.7 °C 30.1 in /  1017.8 hPa Calm   1 mph /  1.6 km/h 66 % 0 in /  0.0 mm
22:26 77.5 °F /  25.3 °C 56.8 °F /  13.8 °C 30 in /  1015.8 hPa WSW 2.3 mph /  3.7 km/h 2.3 mph /  3.7 km/h 49 % 0 in /  0.0 mm
22:31 77.2 °F /  25.1 °C 57 °F /  13.9 °C 30 in /  1016.8 hPa WSW 5.8 mph /  9.3 km/h 5.8 mph /  9.3 km/h 50 % 0 in /  0.0 mm
22:35 71.8 °F /  22.1 °C 59.7 °F /  15.4 °C 30.1 in /  1017.8 hPa Calm     66 % 0 in /  0.0 mm
22:36 77.2 °F /  25.1 °C 57 °F /  13.9 °C 30 in /  1016.8 hPa SW 3.5 mph /  5.6 km/h 3.5 mph /  5.6 km/h 50 % 0 in /  0.0 mm
22:41 77 °F /  25.0 °C 57.6 °F /  14.2 °C 30 in /  1016.8 hPa SW 4.6 mph /  7.4 km/h 4.6 mph /  7.4 km/h 51 % 0 in /  0.0 mm
22:45 71.4 °F /  21.9 °C 60.3 °F /  15.7 °C 30.1 in /  1017.8 hPa Calm     68 % 0 in /  0.0 mm
22:46 76.8 °F /  24.9 °C 57.9 °F /  14.4 °C 30 in /  1016.8 hPa SW 2.3 mph /  3.7 km/h 2.3 mph /  3.7 km/h 52 % 0 in /  0.0 mm
22:51 76.8 °F /  24.9 °C 57.9 °F /  14.4 °C 30 in /  1016.8 hPa SW 2.3 mph /  3.7 km/h 2.3 mph /  3.7 km/h 52 % 0 in /  0.0 mm
22:55 71.1 °F /  21.7 °C 60.4 °F /  15.8 °C 30.1 in /  1017.8 hPa Calm     69 % 0 in /  0.0 mm
22:56 76.6 °F /  24.8 °C 57.7 °F /  14.3 °C 30 in /  1016.8 hPa SW 2.4 mph /  3.9 km/h 2.4 mph /  3.9 km/h 52 % 0 in /  0.0 mm
23:01 76.5 °F /  24.7 °C 58.1 °F /  14.5 °C 30.1 in /  1017.8 hPa SW 3.5 mph /  5.6 km/h 3.5 mph /  5.6 km/h 53 % 0 in /  0.0 mm
23:02 76.5 °F /  24.7 °C 58.1 °F /  14.5 °C 30.1 in /  1017.8 hPa SW 3.5 mph /  5.6 km/h 3.5 mph /  5.6 km/h 53 % 0 in /  0.0 mm
23:05 70.9 °F /  21.6 °C 60.3 °F /  15.7 °C 30.1 in /  1017.8 hPa Calm     69 % 0 in /  0.0 mm
23:07 76.3 °F /  24.6 °C 57.9 °F /  14.4 °C 30.1 in /  1017.8 hPa West 2.3 mph /  3.7 km/h 2.3 mph /  3.7 km/h 53 % 0 in /  0.0 mm
23:12 76.3 °F /  24.6 °C 57.9 °F /  14.4 °C 30.1 in /  1017.8 hPa WSW 2.3 mph /  3.7 km/h 2.3 mph /  3.7 km/h 53 % 0 in /  0.0 mm
23:15 70.7 °F /  21.5 °C 60.1 °F /  15.6 °C 30.1 in /  1017.8 hPa Calm     69 % 0 in /  0.0 mm
23:17 76.1 °F /  24.5 °C 57.7 °F /  14.3 °C 30.1 in /  1017.8 hPa West 3.5 mph /  5.6 km/h 3.5 mph /  5.6 km/h 53 % 0 in /  0.0 mm
23:22 75.9 °F /  24.4 °C 57.6 °F /  14.2 °C 30.1 in /  1017.8 hPa WSW 3.5 mph /  5.6 km/h 3.5 mph /  5.6 km/h 53 % 0 in /  0.0 mm
23:25 70.5 °F /  21.4 °C 60.3 °F /  15.7 °C 30 in /  1016.8 hPa SW 1 mph /  1.6 km/h 1 mph /  1.6 km/h 70 % 0 in /  0.0 mm
23:27 75.7 °F /  24.3 °C 57.4 °F /  14.1 °C 30.1 in /  1017.8 hPa West 2.3 mph /  3.7 km/h 2.4 mph /  3.9 km/h 53 % 0 in /  0.0 mm
23:32 75.7 °F /  24.3 °C 57.9 °F /  14.4 °C 30.1 in /  1017.8 hPa WSW 2.3 mph /  3.7 km/h 2.3 mph /  3.7 km/h 54 % 0 in /  0.0 mm
23:35 70.3 °F /  21.3 °C 60.4 °F /  15.8 °C 30 in /  1016.8 hPa Calm   2 mph /  3.2 km/h 71 % 0 in /  0.0 mm
23:37 75.7 °F /  24.3 °C 57.9 °F /  14.4 °C 30.1 in /  1017.8 hPa WSW 3.5 mph /  5.6 km/h 3.5 mph /  5.6 km/h 54 % 0 in /  0.0 mm
23:42 75.6 °F /  24.2 °C 57.7 °F /  14.3 °C 30.1 in /  1017.8 hPa WNW 3.5 mph /  5.6 km/h 3.5 mph /  5.6 km/h 54 % 0 in /  0.0 mm
23:45 70.2 °F /  21.2 °C 60.3 °F /  15.7 °C 30 in /  1016.8 hPa Calm     71 % 0 in /  0.0 mm
23:47 75.6 °F /  24.2 °C 57.7 °F /  14.3 °C 30.1 in /  1017.8 hPa SW 2.3 mph /  3.7 km/h 2.3 mph /  3.7 km/h 54 % 0 in /  0.0 mm
23:52 75.4 °F /  24.1 °C 57.6 °F /  14.2 °C 30.1 in /  1017.8 hPa West 2.3 mph /  3.7 km/h 2.3 mph /  3.7 km/h 54 % 0 in /  0.0 mm
23:55 70.2 °F /  21.2 °C 60.3 °F /  15.7 °C 30 in /  1016.8 hPa WSW 1 mph /  1.6 km/h 1 mph /  1.6 km/h 71 % 0 in /  0.0 mm
23:57 75.2 °F /  24.0 °C 57.4 °F /  14.1 °C 30.1 in /  1017.8 hPa West 2.3 mph /  3.7 km/h 2.3 mph /  3.7 km/h 54 % 0 in /  0.0 mm
Meteo Sesrovires
Elogis d' Weather Underground - 3.75 mb

Guio original per  Jim McMurry - jmcmurry@mwt.net Adaptat per a la plantilla per  Wim van der Kuil - Leuven-Template.eu

Trobareu la nostra informacio del temps tambe a:

Weather Underground

AWEKAS